Have a Safe July 4th! 

Flight Track Log - Related Links

Times and Time Zones

All times are in EDT time to prevent confusion due to time zone crossing. See the ASQ4600 flight status page for this flight to view local times or setup timezone preferences in your user account.

Time Position Orientation Groundspeed Altitude Reporting Facility
EDT Latitude Longitude Course Direction KTS MPH feet Rate Location/Type
Thu 06:43:23 AM 37.5333 -77.3667 315° West 180 207 2,200  Level Potomac TRACON
Thu 06:44:14 AM 37.5611 -77.4022 315° West 193 222 3,800 2,324 Climbing Washington Center
Thu 06:45:14 AM 37.6017 -77.4686 308° West 216 249 6,500 2,300 Climbing Washington Center
Thu 06:47:14 AM 37.6889 -77.6150 307° West 259 298 10,700 2,133 Climbing Washington Center
Thu 06:48:14 AM 37.7417 -77.7006 308° West 289 333 12,900 1,900 Climbing Washington Center
Thu 06:49:14 AM 37.7964 -77.7914 307° West 313 360 14,500 1,650 Climbing Washington Center
Thu 06:50:14 AM 37.8531 -77.8853 307° West 327 376 16,200 1,550 Climbing Washington Center
Thu 06:51:14 AM 37.9097 -77.9817 307° West 332 382 17,600 1,250 Climbing Washington Center
Thu 06:52:14 AM 37.9683 -78.0756 308° West 343 395 18,700 1,450 Climbing Washington Center
Thu 06:53:14 AM 38.0622 -78.1631 324° Northwest 356 410 20,500 1,700 Climbing Washington Center
Thu 06:54:14 AM 38.1769 -78.1697 357° North 368 423 22,100 1,488 Climbing Washington Center
Thu 06:55:15 AM 38.2936 -78.1764 357° North 394 453 23,500 1,400 Climbing Washington Center
Thu 06:56:14 AM 38.4103 -78.1806 358° North 406 467 24,900 1,462 Climbing Washington Center
Thu 06:57:14 AM 38.5247 -78.1872 357° North 406 467 26,400 1,050 Climbing Washington Center
Thu 06:58:14 AM 38.6392 -78.1964 356° North 406 467 27,000 300 Climbing Washington Center
Thu 06:59:14 AM 38.7581 -78.2006 358° North 411 473 27,000  Level Washington Center
Thu 07:00:14 AM 38.8850 -78.2106 356° North 425 489 27,000  Level Washington Center
Thu 07:01:14 AM 39.0097 -78.2203 357° North 442 509 27,000  Level Washington Center
Thu 07:02:14 AM 39.1408 -78.2356 355° North 454 522 27,000  Level Washington Center
Thu 07:03:14 AM 39.2675 -78.2483 356° North 460 529 27,000  Level Washington Center
Thu 07:05:14 AM 39.5247 -78.2739 356° North 461 531 27,000  Level Cleveland Center
Thu 07:06:14 AM 39.6500 -78.2858 356° North 461 531 27,000  Level Cleveland Center
Thu 07:07:14 AM 39.7525 -78.2986 355° North 461 531 27,000  Level Cleveland Center
Thu 07:08:14 AM 39.8783 -78.3403 346° North 451 519 27,000  Level Cleveland Center
Thu 07:09:14 AM 39.9636 -78.4378 319° Northwest 408 470 27,000  Level Cleveland Center
Thu 07:10:14 AM 40.0486 -78.5328 319° Northwest 408 470 27,000  Level Cleveland Center
Thu 07:11:14 AM 40.1339 -78.6278 320° Northwest 403 464 27,000  Level Cleveland Center
Thu 07:12:14 AM 40.2189 -78.7233 319° Northwest 403 464 27,000  Level Cleveland Center
Thu 07:13:14 AM 40.3017 -78.8189 319° Northwest 403 464 27,000  Level Cleveland Center
Thu 07:14:14 AM 40.3719 -78.9317 309° West 397 457 27,000  Level Cleveland Center
Thu 07:15:14 AM 40.4342 -79.0447 306° West 397 457 27,000  Level Cleveland Center
Thu 07:16:14 AM 40.4981 -79.1578 307° West 392 451 27,000  Level Cleveland Center
Thu 07:17:14 AM 40.5619 -79.2739 306° West 392 451 27,000  Level Cleveland Center
Thu 07:18:14 AM 40.6300 -79.3903 308° West 397 457 27,000  Level Cleveland Center
Thu 07:19:14 AM 40.6936 -79.5042 306° West 397 457 27,000  Level Cleveland Center
Thu 07:20:14 AM 40.7553 -79.6183 306° West 397 457 27,000  Level Cleveland Center
Thu 07:21:14 AM 40.8186 -79.7325 306° West 397 457 27,000  Level Cleveland Center
Thu 07:22:14 AM 40.8819 -79.8472 306° West 392 451 27,000 -250 Level Cleveland Center
Thu 07:23:14 AM 40.9431 -79.9592 306° West 387 445 26,500 -1,150 Descending Cleveland Center
Thu 07:24:14 AM 41.0083 -80.0742 307° West 387 445 24,700 -1,250 Descending Cleveland Center
Thu 07:25:14 AM 41.0672 -80.1839 305° West 380 437 24,000 -350 Descending Cleveland Center
Thu 07:26:14 AM 41.1278 -80.2964 306° West 375 432 24,000  Level Cleveland Center
Thu 07:27:14 AM 41.1906 -80.4119 306° West 384 442 24,000 -1,200 Level Cleveland Center
Thu 07:28:14 AM 41.2511 -80.5222 306° West 378 435 21,600 -2,500 Descending Cleveland Center
Thu 07:29:14 AM 41.3136 -80.6439 304° West 373 429 19,000 -2,450 Descending Cleveland Center
Thu 07:30:14 AM 41.3617 -80.7575 299° West 373 429 16,700 -2,350 Descending Cleveland Center
Thu 07:31:14 AM 41.4050 -80.8711 297° West 348 400 14,300 -2,400 Descending Cleveland Center
Thu 07:32:14 AM 41.4464 -80.9819 297° West 343 395 11,900 -2,533 Descending Cleveland Center
Thu 07:32:44 AM 41.4692 -81.0347 300° West 331 381 10,500 -1,900 Descending Cleveland Center
Thu 07:33:14 AM 41.4878 -81.0931 293° West 336 387 10,000 -600 Descending Cleveland Center
Thu 07:33:44 AM 41.5083 -81.1433 299° West 317 365 9,900  Descending Cleveland Center
Thu 07:34:14 AM 41.5122 -81.2014 275° West 320 368 10,000  Climbing Cleveland Center
Thu 07:34:39 AM 41.5119 -81.2458 270° West 325 374 9,900  Descending Cleveland Center
Thu 07:35:14 AM 41.5094 -81.3125 267° West 300 345 10,000 -98 Climbing Cleveland Center
Thu 07:35:40 AM 41.5072 -81.3539 266° West 277 319 9,800 -1,100 Descending Cleveland Center
Thu 07:36:14 AM 41.5047 -81.4067 266° West 282 325 8,900 -1,900 Descending Cleveland Center
Thu 07:36:40 AM 41.5044 -81.4372 269° West 216 249 7,900 -2,200 Descending Cleveland Center
Thu 07:37:14 AM 41.5042 -81.4842 270° West 234 269 6,700 -2,164 Descending Cleveland Center
Thu 07:37:41 AM 41.5039 -81.5175 269° West 212 244 5,700 -2,100 Descending Cleveland Center
Thu 07:38:14 AM 41.5014 -81.5675 266° West 223 257 4,600 -2,060 Descending Cleveland Center
Thu 07:38:48 AM 41.5008 -81.6200 269° West 238 274 3,400 -1,600 Descending Cleveland Center
Thu 07:39:14 AM 41.5006 -81.6533 269° West 228 262 3,000 -500 Descending Cleveland Center
Thu 07:39:48 AM 41.5000 -81.6978 269° West 212 244 2,900  Descending Cleveland Center
Thu 07:40:14 AM 41.4894 -81.7281 245° Southwest 220 253 3,000 -393 Climbing Cleveland Center
Thu 07:40:49 AM 41.4725 -81.7608 235° Southwest 189 217 2,500 -800 Descending Cleveland Center
Thu 07:41:14 AM 41.4597 -81.7772 224° Southwest 186 214 2,200 -778 Descending Cleveland Center
Thu 07:41:43 AM 41.4469 -81.7964 228° Southwest 117 135 1,800 -667 Descending Cleveland Center
Thu 07:42:44 AM 41.4278 -81.8294 232° Southwest 112 129 1,200 -590 Descending Cleveland Center
Thu 07:44:00 AM 41.4000 -81.8500 252° West  Level FlightAware Approximate
Thu 07:51:00 AM 41.4094 -81.8547 252° West  Level Estimated

Login

Don't have an account? Register now (free) for customized features, flight alerts, and more!